METAR Data

Data at: 2224 UTC 26 Feb 2020

METAR for:KPYM (Plymouth Muni, MA, US)
Text:KPYM 262152Z AUTO 06006KT 1/4SM FG VV002 06/05 A2996 RMK AO2 SLP147 T00560050
Temperature: 5.6°C ( 42°F)
Dewpoint: 5.0°C ( 41°F) [RH = 96%]
Pressure (altimeter):29.96 inches Hg (1014.6 mb) [Sea level pressure: 1014.7 mb]
Winds:from the ENE (60 degrees) at 7 MPH (6 knots; 3.1 m/s)
Visibility: 0.25 sm ( 0.40 km)
Ceiling:indefinite ceiling with vertical visibility of 200 feet AGL
Clouds:obscured sky
Weather:FG (fog)
QC Flag:automated observation with no human augmentation